createdAt,value
2023-11-08T00:00:09.426Z,5.50
2023-11-08T00:02:42.695Z,5.50
2023-11-08T00:05:09.550Z,5.70
2023-11-08T00:07:36.560Z,6.10
2023-11-08T00:10:03.607Z,4.00
2023-11-08T00:12:31.128Z,4.90
2023-11-08T00:14:58.117Z,5.30
2023-11-08T00:17:26.689Z,5.50
2023-11-08T00:19:55.277Z,5.00
2023-11-08T00:22:22.434Z,6.40
2023-11-08T00:24:49.272Z,5.80
2023-11-08T00:27:16.025Z,5.80
2023-11-08T00:29:43.270Z,3.60
2023-11-08T00:32:10.407Z,4.60
2023-11-08T00:34:38.114Z,4.70
2023-11-08T00:37:05.738Z,4.50
2023-11-08T00:39:32.466Z,4.50
2023-11-08T00:41:59.217Z,4.60
2023-11-08T00:44:26.158Z,5.70
2023-11-08T00:46:54.752Z,4.20
2023-11-08T00:49:22.547Z,5.60
2023-11-08T00:51:49.524Z,5.40
2023-11-08T00:54:16.339Z,4.60
2023-11-08T00:56:43.749Z,5.80
2023-11-08T00:59:10.488Z,6.70
2023-11-08T01:01:37.744Z,5.40
2023-11-08T01:04:07.959Z,4.20
2023-11-08T01:06:35.145Z,5.70
2023-11-08T01:09:01.898Z,4.70
2023-11-08T01:11:29.418Z,5.90
2023-11-08T01:13:56.306Z,5.70
2023-11-08T01:16:23.429Z,5.70
2023-11-08T01:18:50.409Z,5.70
2023-11-08T01:21:17.426Z,4.20
2023-11-08T01:23:44.751Z,4.60
2023-11-08T01:26:11.518Z,4.30
2023-11-08T01:28:38.645Z,5.20
2023-11-08T01:31:05.707Z,5.80
2023-11-08T01:33:32.971Z,5.60
2023-11-08T01:36:00.709Z,5.40
2023-11-08T01:38:27.475Z,4.00
2023-11-08T01:40:54.292Z,5.10
2023-11-08T01:43:31.584Z,4.20
2023-11-08T01:46:07.573Z,5.00
2023-11-08T01:48:34.470Z,4.80
2023-11-08T01:51:04.909Z,5.20
2023-11-08T01:53:33.399Z,5.50
2023-11-08T01:56:00.842Z,5.00
2023-11-08T01:58:27.828Z,3.50
2023-11-08T02:00:54.745Z,5.00
2023-11-08T02:03:22.825Z,4.70
2023-11-08T02:05:49.965Z,4.30
2023-11-08T02:08:17.818Z,4.80
2023-11-08T02:10:45.487Z,6.80
2023-11-08T02:13:13.048Z,6.20
2023-11-08T02:15:41.064Z,6.20
2023-11-08T02:18:08.185Z,4.60
2023-11-08T02:20:35.162Z,4.20
2023-11-08T02:23:02.166Z,7.30
2023-11-08T02:25:32.207Z,7.00
2023-11-08T02:27:59.253Z,6.20
2023-11-08T02:30:26.165Z,6.10
2023-11-08T02:32:53.241Z,7.90
2023-11-08T02:35:20.070Z,7.90
2023-11-08T02:37:47.604Z,5.90
2023-11-08T02:40:14.480Z,4.00
2023-11-08T02:42:45.210Z,6.00
2023-11-08T02:45:12.707Z,5.50
2023-11-08T02:47:40.039Z,5.90
2023-11-08T02:50:07.562Z,13.30
2023-11-08T02:52:34.517Z,15.00
2023-11-08T02:55:02.358Z,13.30
2023-11-08T02:57:29.266Z,8.20
2023-11-08T02:59:55.969Z,9.70
2023-11-08T03:02:23.197Z,7.70
2023-11-08T03:04:50.152Z,7.30
2023-11-08T03:07:17.192Z,7.70
2023-11-08T03:09:43.866Z,6.80
2023-11-08T03:12:10.767Z,8.10
2023-11-08T03:14:37.612Z,9.90
2023-11-08T03:17:04.452Z,6.00
2023-11-08T03:19:31.841Z,7.00
2023-11-08T03:22:01.017Z,5.80
2023-11-08T03:24:27.877Z,4.90
2023-11-08T03:26:54.615Z,5.50
2023-11-08T03:31:16.263Z,6.20
2023-11-08T03:33:43.898Z,7.10
2023-11-08T03:43:55.525Z,5.30
2023-11-08T03:46:23.105Z,5.70
2023-11-08T03:48:54.125Z,7.20
2023-11-08T03:51:22.164Z,6.90
2023-11-08T03:53:49.692Z,7.60
2023-11-08T04:04:03.359Z,7.10
2023-11-08T04:14:09.868Z,4.70
2023-11-08T04:16:41.119Z,5.40
2023-11-08T04:19:08.887Z,5.00
2023-11-08T04:21:38.129Z,6.50
2023-11-08T04:24:07.673Z,6.40
2023-11-08T04:34:40.341Z,5.70
2023-11-08T04:37:09.300Z,5.60
2023-11-08T04:39:36.396Z,7.00
2023-11-08T04:42:04.416Z,7.60
2023-11-08T04:44:31.295Z,5.30
2023-11-08T04:46:57.986Z,6.10
2023-11-08T04:49:24.842Z,7.50
2023-11-08T04:51:51.824Z,6.10
2023-11-08T04:54:18.823Z,7.00
2023-11-08T04:56:45.779Z,6.60
2023-11-08T04:59:13.437Z,7.60
2023-11-08T05:01:42.536Z,5.10
2023-11-08T05:04:09.511Z,5.70
2023-11-08T05:06:36.372Z,6.80
2023-11-08T05:09:03.628Z,6.30
2023-11-08T05:11:30.516Z,5.90
2023-11-08T05:13:57.515Z,6.10
2023-11-08T05:16:24.205Z,6.90
2023-11-08T05:18:54.195Z,4.90
2023-11-08T05:21:22.066Z,7.20
2023-11-08T05:23:49.095Z,7.20
2023-11-08T05:26:17.043Z,7.20
2023-11-08T05:28:43.640Z,7.10
2023-11-08T05:31:10.483Z,7.30
2023-11-08T05:33:40.462Z,7.80
2023-11-08T05:36:07.959Z,8.40
2023-11-08T05:38:34.825Z,6.30
2023-11-08T05:41:01.645Z,5.40
2023-11-08T05:43:28.616Z,6.10
2023-11-08T05:45:56.736Z,6.50
2023-11-08T05:48:23.807Z,7.40
2023-11-08T05:50:50.764Z,7.10
2023-11-08T05:53:18.212Z,7.30
2023-11-08T05:55:44.974Z,6.30
2023-11-08T05:58:14.680Z,6.70
2023-11-08T06:00:42.590Z,6.80
2023-11-08T06:03:10.138Z,5.70
2023-11-08T06:05:37.021Z,7.00
2023-11-08T06:08:05.178Z,7.50
2023-11-08T06:10:33.480Z,7.10
2023-11-08T06:13:00.392Z,5.40
2023-11-08T06:15:27.418Z,7.50
2023-11-08T06:17:54.567Z,5.90
2023-11-08T06:20:22.771Z,7.40
2023-11-08T06:22:50.143Z,7.40
2023-11-08T06:25:17.613Z,8.00
2023-11-08T06:27:44.569Z,6.40
2023-11-08T06:30:12.316Z,6.80
2023-11-08T06:32:39.485Z,7.70
2023-11-08T06:35:06.947Z,7.80
2023-11-08T06:37:33.785Z,7.40
2023-11-08T06:40:00.629Z,7.70
2023-11-08T06:42:27.521Z,5.40
2023-11-08T06:44:54.497Z,9.20
2023-11-08T06:47:21.641Z,8.70
2023-11-08T06:49:48.483Z,8.60
2023-11-08T06:52:15.329Z,8.40
2023-11-08T06:54:42.844Z,9.20
2023-11-08T06:57:10.450Z,8.80
2023-11-08T06:59:37.341Z,6.80
2023-11-08T07:02:07.210Z,6.80
2023-11-08T07:04:34.185Z,7.10
2023-11-08T07:07:01.963Z,7.80
2023-11-08T07:09:29.704Z,11.30
2023-11-08T07:11:56.865Z,8.60
2023-11-08T07:14:24.602Z,7.70
2023-11-08T07:16:51.573Z,7.30
2023-11-08T07:19:18.512Z,7.90
2023-11-08T07:21:45.787Z,9.20
2023-11-08T07:24:12.787Z,9.70
2023-11-08T07:26:39.619Z,8.50
2023-11-08T07:29:08.130Z,7.70
2023-11-08T07:31:37.543Z,9.20
2023-11-08T07:34:06.169Z,11.00
2023-11-08T07:36:33.281Z,8.40
2023-11-08T07:39:05.406Z,8.90
2023-11-08T07:41:33.729Z,5.60
2023-11-08T07:44:03.402Z,4.40
2023-11-08T07:46:31.332Z,5.00
2023-11-08T07:48:58.309Z,4.30
2023-11-08T07:51:28.860Z,3.50
2023-11-08T07:53:59.908Z,4.30
2023-11-08T07:56:26.936Z,3.10
2023-11-08T07:58:53.761Z,3.50
2023-11-08T08:01:21.996Z,5.40
2023-11-08T08:03:49.496Z,5.70
2023-11-08T08:06:16.854Z,4.70
2023-11-08T08:08:46.775Z,19.50
2023-11-08T08:11:13.710Z,40.30
2023-11-08T08:13:40.834Z,29.10
2023-11-08T08:16:08.730Z,25.50
2023-11-08T08:18:37.251Z,19.60
2023-11-08T08:21:05.082Z,19.40
2023-11-08T08:23:32.841Z,77.10
2023-11-08T08:26:00.910Z,16.60
2023-11-08T08:28:28.164Z,12.70
2023-11-08T08:30:55.061Z,10.80
2023-11-08T08:33:23.436Z,13.80
2023-11-08T08:35:50.752Z,12.90
2023-11-08T08:38:17.790Z,13.60
2023-11-08T08:40:44.832Z,10.30
2023-11-08T08:43:12.208Z,10.40
2023-11-08T08:45:39.262Z,10.40
2023-11-08T08:48:07.421Z,8.80
2023-11-08T08:50:37.322Z,9.40
2023-11-08T08:53:04.374Z,11.50
2023-11-08T08:55:31.848Z,12.40
2023-11-08T08:57:58.683Z,11.70
2023-11-08T09:00:26.237Z,9.30
2023-11-08T09:02:54.014Z,8.90
2023-11-08T09:05:24.729Z,7.40
2023-11-08T09:07:51.987Z,7.80
2023-11-08T09:10:19.040Z,5.70
2023-11-08T09:12:46.230Z,6.10
2023-11-08T09:15:14.363Z,6.30
2023-11-08T09:17:41.482Z,4.70
2023-11-08T09:20:09.701Z,6.60
2023-11-08T09:22:37.027Z,5.80
2023-11-08T09:25:08.100Z,6.00
2023-11-08T09:27:38.761Z,6.00
2023-11-08T09:30:09.383Z,8.60
2023-11-08T09:32:36.413Z,6.00
2023-11-08T09:35:04.096Z,4.80
2023-11-08T09:37:31.290Z,5.80
2023-11-08T09:39:58.893Z,6.90
2023-11-08T09:42:30.635Z,5.80
2023-11-08T09:44:59.148Z,5.50
2023-11-08T09:47:26.475Z,4.10
2023-11-08T09:49:54.618Z,5.30
2023-11-08T09:52:23.008Z,6.10
2023-11-08T09:54:50.674Z,5.40
2023-11-08T09:57:17.522Z,5.50
2023-11-08T09:59:44.457Z,5.30
2023-11-08T10:02:12.038Z,5.70
2023-11-08T10:04:45.400Z,6.70
2023-11-08T10:07:15.111Z,5.40
2023-11-08T10:09:42.712Z,4.50
2023-11-08T10:12:10.250Z,4.50
2023-11-08T10:14:41.371Z,4.40
2023-11-08T10:17:30.908Z,4.10
2023-11-08T10:19:58.879Z,4.30
2023-11-08T10:22:27.221Z,4.40
2023-11-08T10:24:55.989Z,3.40
2023-11-08T10:27:24.087Z,3.70
2023-11-08T10:29:51.489Z,5.00
2023-11-08T10:32:22.954Z,3.90
2023-11-08T10:34:50.739Z,5.70
2023-11-08T10:37:22.690Z,6.00
2023-11-08T10:39:49.651Z,7.30
2023-11-08T10:42:16.599Z,5.10
2023-11-08T10:44:43.519Z,5.20
2023-11-08T10:47:12.332Z,10.80
2023-11-08T10:49:39.673Z,22.90
2023-11-08T10:52:12.028Z,24.70
2023-11-08T10:54:42.833Z,13.30
2023-11-08T10:57:09.919Z,10.50
2023-11-08T10:59:37.507Z,5.80
2023-11-08T11:02:10.314Z,5.30
2023-11-08T11:04:37.174Z,5.60
2023-11-08T11:07:08.423Z,6.10
2023-11-08T11:09:36.932Z,7.40
2023-11-08T11:12:08.650Z,25.80
2023-11-08T11:14:38.237Z,19.20
2023-11-08T11:17:08.010Z,7.40
2023-11-08T11:19:34.924Z,5.10
2023-11-08T11:22:06.708Z,4.10
2023-11-08T11:24:33.638Z,3.70
2023-11-08T11:27:01.458Z,3.70
2023-11-08T11:29:29.796Z,4.00
2023-11-08T11:31:56.737Z,4.00
2023-11-08T11:34:27.611Z,3.50
2023-11-08T11:37:14.063Z,6.60
2023-11-08T11:40:09.494Z,4.30
2023-11-08T11:42:36.662Z,3.50
2023-11-08T11:45:09.552Z,3.70
2023-11-08T11:47:37.445Z,2.90
2023-11-08T11:50:05.918Z,2.80
2023-11-08T11:52:34.571Z,3.70
2023-11-08T11:55:02.193Z,3.30
2023-11-08T11:57:30.575Z,3.70
2023-11-08T12:00:02.252Z,3.80
2023-11-08T12:02:35.010Z,2.50
2023-11-08T12:05:02.458Z,2.70
2023-11-08T12:07:30.026Z,2.90
2023-11-08T12:09:57.171Z,2.80
2023-11-08T12:12:31.695Z,3.10
2023-11-08T12:14:58.951Z,3.30
2023-11-08T12:17:27.689Z,3.10
2023-11-08T12:19:55.121Z,3.60
2023-11-08T12:22:22.188Z,3.30
2023-11-08T12:24:49.660Z,3.60
2023-11-08T12:27:17.601Z,3.90
2023-11-08T12:29:45.910Z,3.60
2023-11-08T12:32:12.817Z,4.20
2023-11-08T12:34:41.235Z,4.30
2023-11-08T12:37:08.908Z,5.10
2023-11-08T12:39:36.350Z,5.60
2023-11-08T12:42:03.705Z,4.20
2023-11-08T12:44:45.535Z,4.10
2023-11-08T12:47:14.975Z,5.30
2023-11-08T12:49:44.691Z,6.00
2023-11-08T12:52:12.647Z,5.60
2023-11-08T12:54:39.733Z,4.90
2023-11-08T12:57:06.976Z,3.80
2023-11-08T12:59:35.936Z,3.90
2023-11-08T13:02:03.189Z,4.00
2023-11-08T13:04:30.485Z,4.00
2023-11-08T13:06:57.760Z,3.50
2023-11-08T13:09:29.559Z,3.20
2023-11-08T13:11:56.601Z,2.80
2023-11-08T13:14:23.551Z,3.20
2023-11-08T13:16:50.955Z,3.60
2023-11-08T13:19:18.446Z,3.90
2023-11-08T13:21:45.690Z,3.70
2023-11-08T13:24:12.766Z,2.80
2023-11-08T13:26:39.651Z,3.40
2023-11-08T13:29:07.269Z,4.00
2023-11-08T13:31:34.367Z,4.40
2023-11-08T13:34:01.488Z,3.80
2023-11-08T13:36:29.505Z,4.60
2023-11-08T13:38:57.930Z,3.50
2023-11-08T13:41:25.692Z,3.30
2023-11-08T13:43:52.622Z,4.20
2023-11-08T13:46:19.822Z,4.20
2023-11-08T13:48:47.330Z,3.70
2023-11-08T13:51:14.802Z,4.00
2023-11-08T13:53:42.252Z,3.40
2023-11-08T13:56:09.724Z,4.20
2023-11-08T13:58:37.168Z,3.80
2023-11-08T14:01:11.598Z,4.10
2023-11-08T14:03:40.222Z,4.60
2023-11-08T14:06:09.107Z,4.50
2023-11-08T14:08:37.749Z,4.20
2023-11-08T14:11:04.698Z,4.60
2023-11-08T14:13:31.754Z,5.00
2023-11-08T14:15:58.881Z,5.20
2023-11-08T14:18:26.023Z,5.50
2023-11-08T14:20:55.743Z,5.80
2023-11-08T14:23:23.095Z,4.80
2023-11-08T14:25:51.571Z,4.50
2023-11-08T14:28:19.460Z,5.20
2023-11-08T14:30:47.224Z,4.30
2023-11-08T14:33:16.304Z,5.00
2023-11-08T14:35:43.278Z,5.40
2023-11-08T14:38:11.723Z,6.20
2023-11-08T14:40:39.448Z,5.30
2023-11-08T14:43:06.967Z,6.90
2023-11-08T14:45:34.041Z,6.80
2023-11-08T14:48:01.282Z,5.40
2023-11-08T14:50:28.296Z,6.20
2023-11-08T14:52:55.171Z,6.90
2023-11-08T14:55:22.193Z,6.70
2023-11-08T14:57:50.593Z,9.40
2023-11-08T15:00:18.329Z,6.30
2023-11-08T15:02:45.579Z,8.10
2023-11-08T15:05:13.077Z,7.40
2023-11-08T15:09:42.992Z,7.80
2023-11-08T15:10:27.168Z,9.40
2023-11-08T15:12:56.862Z,8.30
2023-11-08T15:15:24.532Z,9.20
2023-11-08T15:17:51.849Z,9.60
2023-11-08T15:20:21.860Z,8.40
2023-11-08T15:22:52.985Z,7.80
2023-11-08T15:25:19.927Z,9.70
2023-11-08T15:27:46.791Z,10.20
2023-11-08T15:30:14.532Z,11.30
2023-11-08T15:32:41.831Z,8.80
2023-11-08T15:35:11.989Z,8.70
2023-11-08T15:37:39.090Z,8.20
2023-11-08T15:40:07.172Z,9.00
2023-11-08T15:42:34.518Z,8.10
2023-11-08T15:45:01.746Z,9.20
2023-11-08T15:47:29.337Z,6.50
2023-11-08T15:49:56.582Z,6.90
2023-11-08T15:52:23.499Z,7.40
2023-11-08T15:54:50.566Z,9.20
2023-11-08T15:57:17.599Z,6.70
2023-11-08T15:59:44.801Z,6.50
2023-11-08T16:02:11.992Z,6.80
2023-11-08T16:04:39.626Z,6.30
2023-11-08T16:07:08.246Z,7.80
2023-11-08T16:09:36.057Z,6.90
2023-11-08T16:12:03.245Z,8.80
2023-11-08T16:14:31.633Z,5.90
2023-11-08T16:16:58.569Z,7.20
2023-11-08T16:19:25.600Z,6.30
2023-11-08T16:21:52.808Z,8.00
2023-11-08T16:24:19.861Z,6.60
2023-11-08T16:26:48.302Z,5.70
2023-11-08T16:29:49.822Z,6.90
2023-11-08T16:32:33.979Z,7.10
2023-11-08T16:34:52.117Z,7.60
2023-11-08T16:37:19.292Z,8.00
2023-11-08T16:39:46.394Z,7.30
2023-11-08T16:42:16.555Z,7.50
2023-11-08T16:44:45.809Z,6.70
2023-11-08T16:47:12.798Z,8.80
2023-11-08T16:49:46.913Z,7.30
2023-11-08T16:52:15.232Z,6.80
2023-11-08T16:54:42.254Z,7.20
2023-11-08T16:57:10.709Z,9.70
2023-11-08T16:59:38.536Z,11.60
2023-11-08T17:02:05.534Z,11.00
2023-11-08T17:04:37.309Z,8.10
2023-11-08T17:07:05.090Z,8.80
2023-11-08T17:09:41.892Z,8.90
2023-11-08T17:12:36.828Z,9.20
2023-11-08T17:15:16.206Z,8.60
2023-11-08T17:17:45.805Z,7.80
2023-11-08T17:20:13.126Z,7.20
2023-11-08T17:22:40.173Z,10.40
2023-11-08T17:25:10.354Z,9.20
2023-11-08T17:27:39.564Z,8.80
2023-11-08T17:30:07.482Z,9.80
2023-11-08T17:32:34.633Z,7.60
2023-11-08T17:35:04.791Z,8.70
2023-11-08T17:37:35.061Z,9.30
2023-11-08T17:40:02.550Z,10.70
2023-11-08T17:42:29.863Z,9.40
2023-11-08T17:44:56.811Z,8.70
2023-11-08T17:47:24.601Z,10.00
2023-11-08T17:49:51.823Z,10.80
2023-11-08T17:52:18.858Z,8.90
2023-11-08T17:54:46.373Z,11.60
2023-11-08T17:57:14.779Z,8.80
2023-11-08T17:59:42.063Z,7.50
2023-11-08T18:02:09.324Z,9.30
2023-11-08T18:04:36.533Z,10.20
2023-11-08T18:07:03.839Z,9.40
2023-11-08T18:09:30.899Z,9.10
2023-11-08T18:11:57.808Z,7.20
2023-11-08T18:14:25.583Z,8.40
2023-11-08T18:16:53.347Z,8.50
2023-11-08T18:19:20.215Z,9.30
2023-11-08T18:21:47.432Z,9.50
2023-11-08T18:24:16.733Z,9.10
2023-11-08T18:26:43.883Z,8.70
2023-11-08T18:29:10.929Z,8.90
2023-11-08T18:31:38.080Z,8.80
2023-11-08T18:34:06.196Z,9.90
2023-11-08T18:36:33.511Z,9.30
2023-11-08T18:39:00.582Z,9.40
2023-11-08T18:41:27.513Z,6.00
2023-11-08T18:43:54.917Z,7.10
2023-11-08T18:46:21.919Z,6.80
2023-11-08T18:48:49.106Z,7.90
2023-11-08T18:51:16.116Z,9.50
2023-11-08T18:53:43.154Z,10.70
2023-11-08T18:56:11.214Z,9.70
2023-11-08T18:58:39.906Z,6.10
2023-11-08T19:01:10.741Z,9.40
2023-11-08T19:03:40.446Z,10.40
2023-11-08T19:06:07.597Z,8.80
2023-11-08T19:08:34.752Z,10.90
2023-11-08T19:11:02.629Z,10.00
2023-11-08T19:13:32.532Z,11.30
2023-11-08T19:15:59.912Z,9.40
2023-11-08T19:18:29.002Z,12.30
2023-11-08T19:20:57.988Z,11.60
2023-11-08T19:23:28.270Z,15.20
2023-11-08T19:25:59.436Z,13.10
2023-11-08T19:28:26.735Z,16.80
2023-11-08T19:30:55.692Z,12.20
2023-11-08T19:33:23.256Z,12.20
2023-11-08T19:35:50.556Z,14.80
2023-11-08T19:38:18.059Z,14.10
2023-11-08T19:40:45.028Z,15.50
2023-11-08T19:43:11.996Z,15.30
2023-11-08T19:45:38.989Z,11.40
2023-11-08T19:48:05.974Z,13.70
2023-11-08T19:50:34.318Z,13.80
2023-11-08T19:53:01.271Z,14.90
2023-11-08T19:55:28.265Z,13.80
2023-11-08T19:57:55.293Z,15.40
2023-11-08T20:00:22.197Z,14.70
2023-11-08T20:02:49.218Z,9.90
2023-11-08T20:05:16.617Z,11.80
2023-11-08T20:07:45.398Z,13.40
2023-11-08T20:10:13.849Z,14.50
2023-11-08T20:12:45.023Z,12.60
2023-11-08T20:15:12.259Z,13.10
2023-11-08T20:17:39.374Z,12.60
2023-11-08T20:20:07.512Z,10.00
2023-11-08T20:22:34.553Z,9.30
2023-11-08T20:25:01.593Z,10.20
2023-11-08T20:27:28.931Z,11.10
2023-11-08T20:29:55.775Z,11.60
2023-11-08T20:32:23.228Z,10.70
2023-11-08T20:34:51.649Z,10.40
2023-11-08T20:37:18.893Z,8.40
2023-11-08T20:39:45.970Z,8.90
2023-11-08T20:42:12.949Z,9.00
2023-11-08T20:44:40.101Z,9.30
2023-11-08T20:47:08.392Z,7.60
2023-11-08T20:49:36.755Z,8.70
2023-11-08T20:52:04.388Z,8.40
2023-11-08T20:54:31.470Z,7.00
2023-11-08T20:56:59.952Z,6.20
2023-11-08T20:59:27.204Z,7.30
2023-11-08T21:01:54.968Z,7.00
2023-11-08T21:04:22.456Z,7.20
2023-11-08T21:06:49.796Z,7.30
2023-11-08T21:09:18.077Z,5.20
2023-11-08T21:11:45.509Z,5.80
2023-11-08T21:14:13.125Z,5.20
2023-11-08T21:16:40.228Z,6.00
2023-11-08T21:19:08.879Z,5.50
2023-11-08T21:21:35.967Z,6.50
2023-11-08T21:24:03.305Z,5.10
2023-11-08T21:26:30.490Z,5.90
2023-11-08T21:28:57.917Z,6.50
2023-11-08T21:31:26.026Z,6.70
2023-11-08T21:33:53.199Z,6.90
2023-11-08T21:36:22.129Z,7.00
2023-11-08T21:38:49.304Z,5.10
2023-11-08T21:41:16.426Z,6.30
2023-11-08T21:43:43.387Z,5.60
2023-11-08T21:46:10.376Z,6.00
2023-11-08T21:48:37.589Z,6.00
2023-11-08T21:51:05.959Z,4.40
2023-11-08T21:53:33.174Z,4.50
2023-11-08T21:56:00.684Z,4.00
2023-11-08T21:58:27.649Z,3.80
2023-11-08T22:00:55.553Z,3.60
2023-11-08T22:03:22.889Z,3.70
2023-11-08T22:05:50.157Z,3.60
2023-11-08T22:08:18.241Z,3.40
2023-11-08T22:10:46.113Z,4.20
2023-11-08T22:13:14.928Z,4.20
2023-11-08T22:15:41.872Z,4.10
2023-11-08T22:18:09.249Z,3.90
2023-11-08T22:20:36.288Z,4.00
2023-11-08T22:23:04.145Z,3.60
2023-11-08T22:25:31.183Z,3.00
2023-11-08T22:27:59.871Z,3.60
2023-11-08T22:30:26.898Z,3.20
2023-11-08T22:32:53.876Z,3.60
2023-11-08T22:35:21.602Z,2.70
2023-11-08T22:37:49.489Z,3.10
2023-11-08T22:40:17.302Z,3.70
2023-11-08T22:42:44.216Z,4.00
2023-11-08T22:45:11.324Z,3.80
2023-11-08T22:47:38.889Z,3.60
2023-11-08T22:50:06.461Z,3.70
2023-11-08T22:52:33.599Z,4.00
2023-11-08T22:55:00.601Z,4.10
2023-11-08T22:57:27.599Z,4.20
2023-11-08T22:59:54.357Z,4.10
2023-11-08T23:02:21.179Z,3.60
2023-11-08T23:04:48.598Z,4.10
2023-11-08T23:07:15.590Z,5.60
2023-11-08T23:09:45.388Z,5.00
2023-11-08T23:12:12.243Z,3.80
2023-11-08T23:14:39.942Z,4.60
2023-11-08T23:17:06.763Z,4.70
2023-11-08T23:19:33.680Z,5.30
2023-11-08T23:22:02.021Z,5.20
2023-11-08T23:24:29.011Z,3.50
2023-11-08T23:26:55.737Z,4.50
2023-11-08T23:29:22.710Z,4.70
2023-11-08T23:31:49.429Z,4.60
2023-11-08T23:34:16.815Z,5.00
2023-11-08T23:36:43.633Z,5.40
2023-11-08T23:39:10.416Z,4.50
2023-11-08T23:41:38.442Z,4.20
2023-11-08T23:44:08.142Z,4.90
2023-11-08T23:46:36.028Z,5.40
2023-11-08T23:49:03.051Z,5.20
2023-11-08T23:51:30.340Z,5.40
2023-11-08T23:53:57.360Z,4.40
2023-11-08T23:56:24.403Z,4.60
2023-11-08T23:58:51.249Z,5.10
